Time;durP1;ratioP1;P1;durP2;ratioP2;P2;SDS_P1;SDS_P2;PMS_P1;PMS_P2;Temp;Humidity;BMP_temperature;BMP_pressure;BME280_temperature;BME280_humidity;BME280_pressure;Samples;Min_cycle;Max_cycle;Signal;HPM_P1;HPM_P2
2022/06/03 00:01:03;;;;;;;4.80;2.15;;;13.10;96.30;;;;;;5036837;28;20037;-84
2022/06/03 00:03:47;;;;;;;2.58;1.98;;;13.00;96.50;;;;;;5034491;28;20037;-85
2022/06/03 00:09:54;;;;;;;3.78;2.33;;;13.00;96.70;;;;;;5033877;28;20202;-86
2022/06/03 00:12:48;;;;;;;17.63;7.13;;;12.90;96.70;;;;;;5034201;28;20045;-86
2022/06/03 00:15:28;;;;;;;4.93;2.30;;;12.90;96.80;;;;;;5033891;28;20033;-86
2022/06/03 00:18:17;;;;;;;3.15;2.33;;;12.80;96.90;;;;;;5033837;28;20473;-85
2022/06/03 00:20:57;;;;;;;7.28;2.65;;;12.70;97.00;;;;;;5033522;28;20422;-86
2022/06/03 00:24:01;;;;;;;4.53;2.90;;;12.80;97.00;;;;;;5032571;28;20481;-86
2022/06/03 00:27:16;;;;;;;5.93;3.13;;;12.70;96.80;;;;;;5034013;28;20060;-86
2022/06/03 00:30:14;;;;;;;4.35;2.50;;;12.70;97.00;;;;;;5051093;28;20029;-85
2022/06/03 00:33:10;;;;;;;7.47;2.80;;;12.70;97.10;;;;;;5033770;28;20022;-85
2022/06/03 00:35:47;;;;;;;6.32;3.05;;;12.60;97.10;;;;;;5033299;28;20300;-86
2022/06/03 00:38:25;;;;;;;3.28;2.20;;;12.60;97.20;;;;;;5033181;28;20037;-87
2022/06/03 00:44:40;;;;;;;5.85;2.45;;;12.60;97.20;;;;;;5010893;28;20174;-85
2022/06/03 00:47:43;;;;;;;7.90;3.05;;;12.50;97.40;;;;;;4994468;28;20033;-86
2022/06/03 00:50:26;;;;;;;5.78;2.92;;;12.50;97.30;;;;;;5011011;28;20379;-84
2022/06/03 00:53:21;;;;;;;4.20;2.70;;;12.40;97.40;;;;;;5010437;28;20491;-85
2022/06/03 00:56:24;;;;;;;10.95;2.90;;;12.40;97.40;;;;;;5010595;28;20169;-86
2022/06/03 00:59:11;;;;;;;6.65;2.97;;;12.60;97.30;;;;;;4994021;28;20121;-86
2022/06/03 01:02:14;;;;;;;4.70;3.03;;;12.60;97.30;;;;;;4994420;28;20102;-85
2022/06/03 01:04:52;;;;;;;3.75;2.50;;;12.60;97.30;;;;;;5010689;28;20062;-86
2022/06/03 01:07:18;;;;;;;;;;;12.40;97.40;;;;;;5010940;28;20021;-86
2022/06/03 01:10:02;;;;;;;7.88;2.45;;;12.50;97.40;;;;;;4994748;28;19921;-86
2022/06/03 01:12:55;;;;;;;8.68;3.08;;;12.40;97.50;;;;;;5010899;28;20042;-86
2022/06/03 01:15:41;;;;;;;6.43;3.05;;;12.20;97.60;;;;;;5024931;28;20056;-86
2022/06/03 01:18:19;;;;;;;5.45;3.00;;;12.20;97.60;;;;;;5032238;28;20048;-86
2022/06/03 01:20:53;;;;;;;7.03;3.33;;;12.10;97.80;;;;;;5032508;28;20079;-85
2022/06/03 01:23:37;;;;;;;5.38;2.90;;;12.10;97.80;;;;;;5032693;28;20037;-86
2022/06/03 01:26:40;;;;;;;8.70;3.40;;;12.10;97.80;;;;;;5031787;28;20145;-86
2022/06/03 01:29:40;;;;;;;8.82;2.80;;;12.00;97.80;;;;;;5032475;28;20061;-85
2022/06/03 01:32:20;;;;;;;4.05;2.60;;;12.00;97.90;;;;;;5032168;28;20038;-86
2022/06/03 01:35:10;;;;;;;4.25;2.78;;;12.00;97.80;;;;;;5032276;28;20152;-87
2022/06/03 01:37:57;;;;;;;4.05;2.72;;;12.00;97.90;;;;;;5032104;28;20064;-86
2022/06/03 01:40:40;;;;;;;4.78;2.88;;;12.00;97.80;;;;;;5031061;28;20043;-86
2022/06/03 01:43:30;;;;;;;4.47;2.80;;;12.00;97.80;;;;;;5030834;28;20041;-84
2022/06/03 01:49:46;;;;;;;7.22;2.95;;;12.00;97.90;;;;;;5030195;28;20042;-84
2022/06/03 01:52:41;;;;;;;5.88;2.92;;;12.00;97.80;;;;;;5030887;28;20025;-84
2022/06/03 01:55:41;;;;;;;5.10;2.80;;;11.90;97.80;;;;;;5031789;28;20116;-84
2022/06/03 01:58:28;;;;;;;6.20;3.13;;;11.90;97.90;;;;;;5031810;28;20499;-86
2022/06/03 02:01:19;;;;;;;6.88;3.42;;;11.80;97.90;;;;;;5031606;28;20171;-86
2022/06/03 02:04:16;;;;;;;5.10;2.42;;;11.70;98.10;;;;;;5012801;28;20183;-84
2022/06/03 02:07:00;;;;;;;4.72;2.67;;;11.70;98.10;;;;;;5030223;28;20057;-85
2022/06/03 02:09:43;;;;;;;5.97;3.15;;;11.70;98.00;;;;;;5030593;28;20045;-86
2022/06/03 02:12:46;;;;;;;7.28;2.72;;;11.70;98.00;;;;;;5030140;28;20029;-85
2022/06/03 02:15:18;;;;;;;7.53;2.80;;;11.70;98.30;;;;;;5031268;28;20041;-87
2022/06/03 02:18:03;;;;;;;8.68;2.97;;;11.70;98.00;;;;;;5031167;28;20499;-86
2022/06/03 02:21:05;;;;;;;7.25;3.00;;;11.70;98.00;;;;;;5030894;28;20486;-83
2022/06/03 02:23:45;;;;;;;12.25;3.33;;;11.60;98.00;;;;;;5030135;28;20371;-86
2022/06/03 02:30:24;;;;;;;5.18;3.45;;;11.60;97.90;;;;;;5028467;28;20048;-84
2022/06/03 02:33:27;;;;;;;6.90;3.15;;;11.60;98.10;;;;;;5022970;28;20026;-86
2022/06/03 02:36:11;;;;;;;5.32;3.28;;;11.50;98.10;;;;;;5028408;28;20032;-84
2022/06/03 02:39:01;;;;;;;3.53;3.15;;;11.50;98.10;;;;;;5028482;28;20045;-86
2022/06/03 02:44:44;;;;;;;7.40;3.97;;;11.40;98.20;;;;;;5028316;28;20072;-85
2022/06/03 02:47:47;;;;;;;6.25;3.60;;;11.40;98.20;;;;;;5011878;28;20030;-85
2022/06/03 02:50:30;;;;;;;4.80;3.60;;;11.40;98.20;;;;;;5028495;28;20547;-85
2022/06/03 02:53:14;;;;;;;7.22;3.97;;;11.30;98.10;;;;;;5011513;28;20440;-85
2022/06/03 02:55:58;;;;;;;6.65;4.00;;;11.30;98.20;;;;;;5028232;28;20030;-85
2022/06/03 02:59:12;;;;;;;4.63;3.53;;;11.30;98.10;;;;;;5011576;28;20467;-85
2022/06/03 03:05:19;;;;;;;6.40;3.83;;;11.20;98.10;;;;;;5030521;28;20095;-86
2022/06/03 03:07:56;;;;;;;5.40;3.55;;;11.30;98.20;;;;;;5029400;28;20105;-86
2022/06/03 03:10:44;;;;;;;6.30;4.03;;;11.20;98.20;;;;;;5030714;28;20048;-85
2022/06/03 03:13:45;;;;;;;5.88;3.92;;;11.30;98.30;;;;;;5032446;28;20041;-86
2022/06/03 03:16:17;;;;;;;8.02;4.68;;;11.20;98.20;;;;;;5031181;28;20034;-85
2022/06/03 03:19:07;;;;;;;7.95;4.03;;;11.20;98.10;;;;;;5035019;28;20098;-86
2022/06/03 03:25:29;;;;;;;5.03;3.92;;;11.20;98.20;;;;;;5034772;28;20040;-85
2022/06/03 03:28:32;;;;;;;7.20;4.50;;;11.10;98.30;;;;;;5034682;28;20026;-86
2022/06/03 03:31:19;;;;;;;6.75;4.32;;;11.20;98.30;;;;;;5034926;28;20412;-86
2022/06/03 03:34:18;;;;;;;6.25;4.28;;;11.20;98.20;;;;;;5033904;28;20387;-85
2022/06/03 03:40:27;;;;;;;5.03;3.75;;;11.20;98.10;;;;;;5036166;28;20028;-83
2022/06/03 03:43:14;;;;;;;5.97;3.67;;;11.30;98.20;;;;;;5034415;28;20049;-85
2022/06/03 03:46:01;;;;;;;7.05;3.78;;;11.30;98.20;;;;;;5035532;28;20040;-83
2022/06/03 03:48:45;;;;;;;7.60;3.30;;;11.30;98.20;;;;;;5037913;28;20041;-82
2022/06/03 03:54:49;;;;;;;7.13;3.53;;;11.40;98.30;;;;;;5036177;28;20080;-86
2022/06/03 04:00:55;;;;;;;4.45;3.50;;;11.30;98.30;;;;;;5034530;28;20175;-86
2022/06/03 04:07:24;;;;;;;5.78;3.90;;;11.40;98.30;;;;;;5051728;28;20055;-86
2022/06/03 04:10:20;;;;;;;7.30;4.07;;;11.40;98.40;;;;;;5055125;28;20461;-84
2022/06/03 04:13:16;;;;;;;7.15;3.30;;;11.50;98.40;;;;;;5056802;28;20250;-87
2022/06/03 04:16:06;;;;;;;8.13;4.20;;;11.50;98.40;;;;;;5055077;28;20037;-85
2022/06/03 04:19:08;;;;;;;6.07;4.28;;;11.40;98.40;;;;;;5054436;28;20033;-86
2022/06/03 04:22:21;;;;;;;6.72;4.00;;;11.50;98.20;;;;;;5056665;28;20039;-84
2022/06/03 04:24:58;;;;;;;8.80;4.20;;;11.60;98.40;;;;;;5053154;28;20500;-85
2022/06/03 04:27:27;;;;;;;6.43;4.53;;;11.70;98.40;;;;;;5054274;28;20036;-86
2022/06/03 04:30:02;;;;;;;8.50;4.18;;;11.70;98.30;;;;;;5053173;28;20394;-83
2022/06/03 04:32:56;;;;;;;6.25;4.43;;;11.70;98.30;;;;;;5053558;28;20112;-85
2022/06/03 04:36:08;;;;;;;7.38;4.18;;;11.80;98.50;;;;;;5052533;28;20112;-86
2022/06/03 04:38:55;;;;;;;7.75;4.57;;;12.00;98.50;;;;;;5052449;28;20029;-85
2022/06/03 04:41:27;;;;;;;7.20;4.50;;;12.00;98.30;;;;;;5053120;28;20045;-85
2022/06/03 04:44:11;;;;;;;11.07;4.47;;;12.00;98.40;;;;;;5053289;28;20025;-85
2022/06/03 04:46:58;;;;;;;8.80;4.18;;;12.10;98.30;;;;;;5051806;28;20412;-83
2022/06/03 04:49:24;;;;;;;5.68;4.30;;;12.10;98.40;;;;;;5051859;28;20043;-85
2022/06/03 04:52:08;;;;;;;6.88;4.15;;;12.20;98.40;;;;;;5053140;28;20025;-84
2022/06/03 04:55:04;;;;;;;7.55;5.00;;;12.40;98.20;;;;;;5053771;28;20021;-85
2022/06/03 04:58:09;;;;;;;15.13;5.03;;;12.40;98.30;;;;;;5052274;28;20072;-84
2022/06/03 05:01:18;;;;;;;13.00;5.85;;;12.60;98.30;;;;;;5041020;28;20120;-85
2022/06/03 05:04:02;;;;;;;24.13;6.38;;;12.70;98.20;;;;;;5052703;28;20114;-84
2022/06/03 05:07:28;;;;;;;43.72;6.90;;;12.90;98.00;;;;;;5053484;28;20020;-85
2022/06/03 05:10:38;;;;;;;12.82;5.53;;;13.10;97.90;;;;;;5052843;28;20036;-85
2022/06/03 05:13:30;;;;;;;15.77;6.35;;;13.20;97.70;;;;;;5051417;28;20025;-86
2022/06/03 05:16:05;;;;;;;10.48;6.10;;;13.40;97.60;;;;;;5053415;28;20455;-86
2022/06/03 05:18:51;;;;;;;10.07;5.70;;;13.50;97.50;;;;;;5053153;28;20064;-85
2022/06/03 05:21:44;;;;;;;16.65;7.28;;;13.70;97.40;;;;;;5054235;28;20036;-84
2022/06/03 05:24:33;;;;;;;11.85;6.20;;;13.80;97.30;;;;;;5052850;28;20052;-86
2022/06/03 05:27:33;;;;;;;11.30;6.00;;;13.90;97.40;;;;;;5051410;28;20427;-86
2022/06/03 05:30:14;;;;;;;11.57;6.47;;;14.00;97.20;;;;;;5052571;28;20120;-84
2022/06/03 05:33:04;;;;;;;10.07;6.30;;;14.20;97.10;;;;;;5052226;28;20049;-85
2022/06/03 05:35:45;;;;;;;8.52;5.95;;;14.40;97.00;;;;;;5052111;28;20029;-82
2022/06/03 05:38:29;;;;;;;9.93;5.72;;;14.50;96.90;;;;;;5051493;28;20040;-84
2022/06/03 05:42:23;;;;;;;10.40;5.70;;;14.60;96.90;;;;;;5051289;28;20701;-85
2022/06/03 05:44:34;;;;;;;10.18;6.25;;;14.60;96.90;;;;;;5051533;28;20482;-83
2022/06/03 05:47:05;;;;;;;14.73;6.63;;;14.90;96.50;;;;;;5050774;28;20037;-84
2022/06/03 05:49:42;;;;;;;11.30;5.68;;;15.10;96.10;;;;;;5050230;28;20454;-84
2022/06/03 05:52:16;;;;;;;11.40;6.43;;;15.40;95.20;;;;;;5051952;28;20123;-86
2022/06/03 05:55:03;;;;;;;12.63;5.60;;;15.50;95.50;;;;;;5051579;28;20033;-86
2022/06/03 05:57:45;;;;;;;6.95;4.53;;;15.70;94.80;;;;;;5051982;28;20128;-84
2022/06/03 06:00:39;;;;;;;8.13;4.25;;;16.00;94.20;;;;;;5051548;28;20450;-84
2022/06/03 06:03:29;;;;;;;6.20;3.85;;;16.20;94.00;;;;;;5051158;28;20033;-78
2022/06/03 06:06:15;;;;;;;7.07;3.92;;;16.30;93.60;;;;;;5050877;28;20124;-77
2022/06/03 06:08:56;;;;;;;7.13;3.85;;;16.50;93.00;;;;;;5049737;28;20025;-75
2022/06/03 06:11:27;;;;;;;10.55;3.63;;;16.40;93.30;;;;;;5050728;28;20051;-74
2022/06/03 06:14:05;;;;;;;12.93;4.28;;;16.50;93.60;;;;;;5050423;28;20047;-76
2022/06/03 06:16:42;;;;;;;10.25;4.68;;;16.50;93.00;;;;;;5050905;28;20447;-74
2022/06/03 06:19:22;;;;;;;11.82;4.03;;;16.50;92.50;;;;;;5051145;28;20047;-82
2022/06/03 06:21:47;;;;;;;14.82;4.22;;;16.70;92.50;;;;;;5050134;28;20024;-78
2022/06/03 06:24:13;;;;;;;10.60;3.95;;;16.80;92.20;;;;;;5051562;28;20334;-74
2022/06/03 06:26:52;;;;;;;7.65;4.15;;;16.90;92.00;;;;;;5049459;28;20033;-74
2022/06/03 06:29:34;;;;;;;7.53;4.15;;;17.00;91.70;;;;;;5050579;28;20025;-76
2022/06/03 06:32:24;;;;;;;9.55;3.83;;;17.10;91.60;;;;;;5050433;28;20036;-80
2022/06/03 06:35:28;;;;;;;6.57;4.05;;;17.10;91.60;;;;;;5049959;28;20028;-76
2022/06/03 06:38:05;;;;;;;7.55;3.70;;;17.20;91.10;;;;;;5050233;28;20033;-77
2022/06/03 06:40:37;;;;;;;8.20;4.13;;;17.20;90.80;;;;;;5048672;28;20040;-74
2022/06/03 06:43:39;;;;;;;10.35;3.78;;;17.30;90.90;;;;;;5049287;28;20494;-78
2022/06/03 06:46:13;;;;;;;5.35;2.70;;;17.20;90.50;;;;;;5050125;28;20021;-78
2022/06/03 06:48:42;;;;;;;7.38;4.57;;;17.20;90.80;;;;;;5050849;28;20486;-78
2022/06/03 06:51:41;;;;;;;5.13;3.38;;;17.30;90.80;;;;;;5048906;28;20029;-78
2022/06/03 06:54:19;;;;;;;6.28;2.50;;;17.30;90.50;;;;;;5048893;28;20616;-78
2022/06/03 06:56:50;;;;;;;;;;;17.30;90.20;;;;;;5049439;28;20037;-76
2022/06/03 06:59:29;;;;;;;10.18;2.90;;;17.40;89.80;;;;;;5050231;28;20004;-77
2022/06/03 07:02:06;;;;;;;5.72;2.78;;;17.40;90.00;;;;;;5049988;28;20344;-78
2022/06/03 07:04:38;;;;;;;3.42;2.33;;;17.50;89.20;;;;;;5050178;28;20366;-76
2022/06/03 07:08:03;;;;;;;3.88;2.50;;;17.50;89.20;;;;;;5050120;28;20021;-78
2022/06/03 07:10:36;;;;;;;5.28;2.75;;;17.60;89.00;;;;;;4988311;28;20404;-79
2022/06/03 07:13:19;;;;;;;3.95;2.72;;;17.70;88.40;;;;;;4988165;28;20039;-79
2022/06/03 07:16:06;;;;;;;7.93;2.20;;;17.80;88.30;;;;;;5019784;28;20518;-77
2022/06/03 07:21:41;;;;;;;6.90;2.25;;;18.00;88.40;;;;;;5050348;28;20122;-79
2022/06/03 07:24:18;;;;;;;3.78;2.00;;;18.20;87.80;;;;;;5050125;28;20052;-81
2022/06/03 07:26:54;;;;;;;3.70;1.92;;;18.30;87.10;;;;;;5049491;28;20037;-82
2022/06/03 07:29:44;;;;;;;4.63;2.47;;;18.40;85.60;;;;;;5048693;28;20029;-79
2022/06/03 07:32:20;;;;;;;5.60;1.88;;;18.50;85.10;;;;;;5049488;28;20044;-79
2022/06/03 07:34:56;;;;;;;9.63;5.10;;;18.60;85.20;;;;;;5050043;28;20427;-79
2022/06/03 07:37:34;;;;;;;7.40;2.80;;;18.70;84.40;;;;;;5049750;28;20474;-78
2022/06/03 07:40:06;;;;;;;9.02;2.40;;;18.80;84.40;;;;;;5049657;28;20118;-76
2022/06/03 07:42:48;;;;;;;4.13;2.10;;;18.90;83.70;;;;;;5049821;28;20053;-80
2022/06/03 07:45:41;;;;;;;8.65;2.15;;;19.20;83.30;;;;;;5049940;28;20033;-80
2022/06/03 07:48:20;;;;;;;8.25;2.80;;;19.50;82.00;;;;;;5049111;28;20087;-82
2022/06/03 07:50:58;;;;;;;5.40;2.13;;;19.80;81.70;;;;;;5048979;28;20041;-76
2022/06/03 07:53:27;;;;;;;;;;;20.10;81.20;;;;;;5049323;28;20116;-75
2022/06/03 07:55:56;;;;;;;3.92;2.40;;;20.30;79.20;;;;;;5048676;28;20253;-76
2022/06/03 07:58:24;;;;;;;7.30;1.73;;;20.40;81.60;;;;;;5048756;28;20104;-77
2022/06/03 08:00:50;;;;;;;5.45;1.92;;;20.70;80.10;;;;;;5049272;28;20048;-75
2022/06/03 08:03:25;;;;;;;3.58;1.80;;;20.90;77.90;;;;;;5050897;28;20064;-77
2022/06/03 08:06:05;;;;;;;3.20;1.88;;;21.10;78.80;;;;;;5052650;28;20029;-74
2022/06/03 08:11:28;;;;;;;4.78;1.50;;;22.70;75.20;;;;;;5053128;28;20091;-76
2022/06/03 08:13:56;;;;;;;3.70;1.50;;;24.00;75.80;;;;;;5052758;28;20028;-77
2022/06/03 08:16:39;;;;;;;4.35;1.95;;;25.40;69.80;;;;;;5052832;28;20455;-77
2022/06/03 08:19:12;;;;;;;2.85;1.83;;;26.70;66.20;;;;;;5053067;28;20094;-77
2022/06/03 08:21:46;;;;;;;3.47;1.77;;;27.90;63.70;;;;;;5053459;28;20021;-78
2022/06/03 08:24:19;;;;;;;3.05;1.65;;;28.10;56.70;;;;;;5053160;28;20045;-76
2022/06/03 08:26:51;;;;;;;3.83;2.65;;;28.30;57.10;;;;;;5052991;28;20025;-77
2022/06/03 08:29:30;;;;;;;4.85;2.47;;;29.00;55.10;;;;;;5052467;28;20040;-75
2022/06/03 08:31:58;;;;;;;2.95;1.90;;;29.50;54.30;;;;;;5053097;28;20040;-76
2022/06/03 08:34:34;;;;;;;6.05;1.50;;;29.80;51.70;;;;;;5052386;28;20052;-77
2022/06/03 08:37:00;;;;;;;2.45;1.23;;;30.30;51.40;;;;;;5052582;28;20136;-75
2022/06/03 08:39:31;;;;;;;6.97;2.20;;;30.90;50.40;;;;;;5052211;28;20054;-76
2022/06/03 08:42:17;;;;;;;5.65;1.70;;;31.40;49.00;;;;;;5051995;28;20057;-75
2022/06/03 08:44:58;;;;;;;2.72;1.17;;;31.00;49.80;;;;;;5052777;28;20029;-76
2022/06/03 08:47:56;;;;;;;2.25;1.38;;;31.60;47.40;;;;;;5052508;28;20048;-76
2022/06/03 08:50:52;;;;;;;5.45;1.77;;;32.20;47.90;;;;;;5052477;28;20109;-75
2022/06/03 08:53:41;;;;;;;3.67;1.70;;;31.70;46.30;;;;;;5051526;28;20474;-77
2022/06/03 08:56:14;;;;;;;3.25;1.73;;;32.10;45.80;;;;;;5051349;28;20047;-76
2022/06/03 08:59:20;;;;;;;6.60;2.15;;;32.30;44.10;;;;;;5052416;28;20428;-74
2022/06/03 09:02:04;;;;;;;3.53;1.25;;;32.10;44.00;;;;;;5052314;28;20032;-76
2022/06/03 09:04:46;;;;;;;4.47;1.70;;;32.30;43.80;;;;;;5052416;28;20033;-75
2022/06/03 09:07:41;;;;;;;3.88;1.60;;;32.00;43.40;;;;;;5052161;28;20032;-79
2022/06/03 09:10:11;;;;;;;3.85;1.60;;;32.00;43.10;;;;;;5051852;28;20083;-75
2022/06/03 09:12:49;;;;;;;3.83;1.50;;;31.70;43.10;;;;;;5052484;28;20028;-76
2022/06/03 09:15:21;;;;;;;2.97;1.60;;;31.60;43.60;;;;;;5050996;28;20037;-75
2022/06/03 09:17:53;;;;;;;4.25;1.52;;;31.50;43.20;;;;;;5051620;28;20094;-76
2022/06/03 09:20:39;;;;;;;7.43;1.80;;;31.40;44.10;;;;;;5051680;28;20363;-76
2022/06/03 09:23:13;;;;;;;7.35;1.67;;;31.10;44.40;;;;;;5050209;28;20087;-78
2022/06/03 09:25:50;;;;;;;2.40;1.38;;;31.10;44.40;;;;;;5051817;28;20025;-79
2022/06/03 09:28:36;;;;;;;;;;;31.10;43.70;;;;;;5052202;28;20036;-78
2022/06/03 09:31:05;;;;;;;4.13;1.50;;;29.80;43.90;;;;;;5051280;28;19928;-77
2022/06/03 09:33:33;;;;;;;1.92;1.50;;;28.60;45.50;;;;;;5051805;28;20052;-78
2022/06/03 09:36:04;;;;;;;1.52;1.23;;;28.90;45.50;;;;;;5052111;28;20447;-77
2022/06/03 09:38:39;;;;;;;2.95;1.52;;;28.80;45.70;;;;;;5051702;28;20059;-75
2022/06/03 09:41:05;;;;;;;2.42;1.73;;;28.30;46.00;;;;;;5049799;28;20067;-75
2022/06/03 09:43:37;;;;;;;3.55;2.00;;;27.70;46.50;;;;;;5050939;28;20082;-76
2022/06/03 09:46:11;;;;;;;5.75;2.17;;;27.40;47.10;;;;;;5050155;28;20036;-76
2022/06/03 09:48:37;;;;;;;2.53;1.70;;;27.20;47.60;;;;;;5051969;28;20031;-72
2022/06/03 09:51:24;;;;;;;3.63;1.73;;;27.30;47.30;;;;;;5051237;28;20037;-73
2022/06/03 09:53:50;;;;;;;1.87;1.33;;;27.10;47.70;;;;;;5050835;28;20037;-72
2022/06/03 09:56:26;;;;;;;0.98;0.88;;;26.80;47.20;;;;;;5050933;28;20033;-74
2022/06/03 09:58:58;;;;;;;4.40;1.40;;;26.80;48.20;;;;;;5050738;28;20098;-73
2022/06/03 10:01:24;;;;;;;3.15;1.40;;;26.90;48.10;;;;;;5050630;28;20029;-74
2022/06/03 10:03:56;;;;;;;2.63;1.63;;;26.80;48.10;;;;;;5050559;28;20028;-76
2022/06/03 10:14:35;;;;;;;3.50;1.40;;;26.20;49.70;;;;;;5050667;28;20279;-75
2022/06/03 10:17:11;;;;;;;7.32;1.35;;;26.30;49.80;;;;;;5050618;28;20032;-74
2022/06/03 10:19:37;;;;;;;4.32;1.88;;;26.40;49.90;;;;;;5050343;28;20265;-76
2022/06/03 10:22:08;;;;;;;2.05;1.50;;;26.50;49.70;;;;;;5050228;28;20044;-80
2022/06/03 10:24:34;;;;;;;1.65;1.25;;;26.40;49.80;;;;;;5051646;28;20052;-76
2022/06/03 10:27:03;;;;;;;7.68;1.40;;;26.40;50.70;;;;;;5056087;28;20043;-79
2022/06/03 10:29:30;;;;;;;5.15;1.70;;;26.40;50.70;;;;;;5050692;28;20055;-77
2022/06/03 10:32:06;;;;;;;1.38;1.15;;;26.30;50.70;;;;;;5050359;28;20060;-76
2022/06/03 10:34:36;;;;;;;2.92;1.35;;;26.00;50.40;;;;;;5050074;28;20447;-77
2022/06/03 10:37:07;;;;;;;2.03;1.60;;;26.10;51.10;;;;;;5050362;28;20025;-76
2022/06/03 10:39:33;;;;;;;3.35;2.58;;;26.30;51.10;;;;;;5050713;28;20035;-75
2022/06/03 10:41:59;;;;;;;5.15;1.90;;;26.30;50.40;;;;;;5049978;28;20102;-77
2022/06/03 10:44:30;;;;;;;1.52;1.40;;;26.20;50.10;;;;;;5050193;28;20021;-76
2022/06/03 10:46:57;;;;;;;3.50;1.60;;;26.00;50.30;;;;;;5049983;28;20130;-79
2022/06/03 10:49:25;;;;;;;2.97;1.60;;;26.10;50.50;;;;;;5049996;28;20060;-78
2022/06/03 11:02:55;;;;;;;2.97;1.52;;;25.70;51.70;;;;;;5050152;28;20035;-78
2022/06/03 11:05:22;;;;;;;1.85;1.23;;;26.00;50.80;;;;;;5050024;28;20112;-73
2022/06/03 11:08:00;;;;;;;2.22;1.38;;;26.10;51.00;;;;;;5049800;28;20410;-74
2022/06/03 11:10:45;;;;;;;3.33;1.48;;;26.10;50.80;;;;;;5049936;28;20029;-75
2022/06/03 11:13:13;;;;;;;3.05;1.83;;;26.10;51.20;;;;;;5049781;28;20021;-75
2022/06/03 11:15:44;;;;;;;3.50;1.77;;;26.20;51.10;;;;;;5049252;28;20239;-75
2022/06/03 11:18:29;;;;;;;5.82;1.80;;;26.20;50.80;;;;;;5050175;28;20040;-75
2022/06/03 11:20:56;;;;;;;1.77;1.50;;;25.80;51.50;;;;;;5048803;28;20044;-74
2022/06/03 11:23:23;;;;;;;2.00;1.15;;;25.90;51.50;;;;;;5049975;28;20106;-75
2022/06/03 11:25:54;;;;;;;3.58;1.48;;;26.00;50.80;;;;;;5049563;28;20094;-75
2022/06/03 11:28:28;;;;;;;2.42;1.35;;;25.80;50.90;;;;;;5048531;28;20052;-73
2022/06/03 11:31:20;;;;;;;5.85;1.23;;;25.90;51.00;;;;;;5050197;28;20033;-76
2022/06/03 11:33:52;;;;;;;3.15;1.23;;;26.00;50.90;;;;;;5048466;28;20037;-73
2022/06/03 11:36:25;;;;;;;2.22;1.40;;;25.80;50.70;;;;;;5049638;28;20029;-74
2022/06/03 11:39:31;;;;;;;1.30;1.13;;;25.70;51.30;;;;;;5050047;28;20474;-73
2022/06/03 11:42:09;;;;;;;4.57;2.80;;;25.80;51.10;;;;;;5053353;28;20152;-73
2022/06/03 11:44:50;;;;;;;3.97;2.83;;;25.90;50.80;;;;;;5053411;28;20447;-75
2022/06/03 11:47:21;;;;;;;2.67;1.80;;;26.00;51.10;;;;;;5053646;28;20055;-74
2022/06/03 11:49:47;;;;;;;8.07;2.20;;;26.10;50.90;;;;;;5053616;28;20071;-74
2022/06/03 11:52:13;;;;;;;2.33;1.85;;;26.10;50.50;;;;;;5052265;28;20118;-74
2022/06/03 11:54:40;;;;;;;1.70;1.50;;;26.10;50.30;;;;;;5053840;28;20022;-75
2022/06/03 11:57:07;;;;;;;6.07;2.58;;;25.80;50.30;;;;;;5053379;28;20029;-72
2022/06/03 11:59:52;;;;;;;1.70;1.60;;;25.50;50.40;;;;;;5053284;28;20025;-74
2022/06/03 12:02:38;;;;;;;1.30;1.20;;;25.60;50.90;;;;;;5053222;28;20059;-74
2022/06/03 12:05:13;;;;;;;2.40;1.30;;;25.60;51.40;;;;;;5052980;28;20131;-76
2022/06/03 12:07:59;;;;;;;1.30;1.20;;;25.60;51.30;;;;;;5051941;28;20033;-73
2022/06/03 12:10:48;;;;;;;2.17;1.45;;;25.70;50.60;;;;;;5051896;28;20036;-73
2022/06/03 12:13:30;;;;;;;2.78;1.35;;;25.70;50.60;;;;;;5051581;28;20033;-71
2022/06/03 12:15:56;;;;;;;2.00;0.88;;;25.70;50.70;;;;;;5053168;28;20049;-71
2022/06/03 12:18:31;;;;;;;1.38;1.13;;;25.80;50.80;;;;;;5053655;28;20079;-71
2022/06/03 12:20:58;;;;;;;1.17;1.08;;;25.90;51.00;;;;;;5052960;28;20419;-73
2022/06/03 12:23:24;;;;;;;1.75;1.30;;;25.80;50.50;;;;;;5053112;28;20499;-74
2022/06/03 12:25:53;;;;;;;7.32;1.40;;;25.70;50.80;;;;;;5052679;28;20037;-74
2022/06/03 12:28:32;;;;;;;1.85;1.58;;;25.80;51.30;;;;;;5052875;28;20063;-74
2022/06/03 12:31:14;;;;;;;2.42;1.20;;;25.70;51.20;;;;;;5052861;28;20470;-73
2022/06/03 12:34:01;;;;;;;5.32;1.33;;;25.60;51.50;;;;;;5052866;28;20029;-74
2022/06/03 12:36:47;;;;;;;3.45;1.40;;;25.50;52.10;;;;;;5051980;28;20036;-74
2022/06/03 12:39:19;;;;;;;9.25;5.47;;;25.60;51.70;;;;;;5053379;28;20041;-78
2022/06/03 12:41:44;;;;;;;2.08;1.58;;;25.70;51.30;;;;;;5053633;28;20048;-85
2022/06/03 12:44:35;;;;;;;4.38;1.40;;;25.70;51.30;;;;;;5053884;28;20036;-86
2022/06/03 12:47:31;;;;;;;4.85;1.45;;;25.60;51.00;;;;;;5053156;28;20490;-85
2022/06/03 12:50:21;;;;;;;2.85;1.05;;;25.60;51.30;;;;;;5052482;28;20036;-76
2022/06/03 12:52:48;;;;;;;3.13;1.73;;;25.50;51.30;;;;;;5052568;28;20035;-73
2022/06/03 12:55:26;;;;;;;6.47;1.70;;;25.60;51.70;;;;;;5052176;28;20309;-77
2022/06/03 12:58:03;;;;;;;4.30;2.65;;;25.70;51.70;;;;;;5052085;28;20649;-74
2022/06/03 13:00:48;;;;;;;1.95;1.10;;;25.60;51.40;;;;;;5052857;28;20537;-77
2022/06/03 13:03:16;;;;;;;2.05;1.15;;;25.70;51.50;;;;;;5052381;28;20040;-77
2022/06/03 13:06:11;;;;;;;4.13;1.55;;;25.70;51.80;;;;;;5050854;28;20029;-75
2022/06/03 13:11:28;;;;;;;1.27;1.17;;;25.90;51.80;;;;;;5050739;28;20485;-74
2022/06/03 13:13:54;;;;;;;5.82;2.45;;;25.80;51.70;;;;;;5051953;28;20397;-76
2022/06/03 13:16:26;;;;;;;2.05;1.25;;;25.80;51.70;;;;;;5050563;28;20163;-75
2022/06/03 13:18:54;;;;;;;5.88;1.50;;;25.80;51.80;;;;;;5052062;28;20033;-81
2022/06/03 13:21:22;;;;;;;4.93;3.05;;;25.90;51.30;;;;;;5052295;28;20064;-74
2022/06/03 13:23:51;;;;;;;5.15;1.50;;;25.80;51.00;;;;;;5050950;28;20043;-74
2022/06/03 13:26:20;;;;;;;5.63;1.40;;;25.70;51.20;;;;;;5050441;28;20032;-81
2022/06/03 13:28:48;;;;;;;2.83;1.60;;;25.70;51.40;;;;;;5051781;28;20033;-75
2022/06/03 13:31:35;;;;;;;2.50;1.60;;;25.70;51.70;;;;;;5051776;28;20072;-74
2022/06/03 13:34:14;;;;;;;2.30;1.30;;;25.60;51.40;;;;;;5051219;28;20104;-76
2022/06/03 13:36:49;;;;;;;2.28;1.05;;;25.60;51.50;;;;;;5050885;28;20418;-75
2022/06/03 13:39:24;;;;;;;12.40;1.40;;;25.70;51.20;;;;;;5051325;28;20070;-75
2022/06/03 13:44:54;;;;;;;3.53;1.20;;;25.60;51.30;;;;;;5051502;28;20047;-81
2022/06/03 13:47:24;;;;;;;5.93;1.58;;;25.50;51.40;;;;;;5051183;28;20033;-76
2022/06/03 13:50:03;;;;;;;7.85;5.10;;;25.40;51.70;;;;;;5050091;28;20040;-75
2022/06/03 13:52:36;;;;;;;10.15;3.72;;;25.40;51.80;;;;;;5050025;28;20063;-78
2022/06/03 13:55:31;;;;;;;3.72;2.05;;;25.40;52.00;;;;;;5051170;28;20285;-79
2022/06/03 13:58:29;;;;;;;3.25;1.30;;;25.50;52.20;;;;;;5051096;28;20101;-82
2022/06/03 14:01:05;;;;;;;2.40;1.25;;;25.50;51.70;;;;;;5045625;28;20374;-81
2022/06/03 14:03:56;;;;;;;2.72;1.80;;;25.50;51.60;;;;;;5050498;28;20289;-80
2022/06/03 14:06:45;;;;;;;2.75;1.33;;;25.50;51.30;;;;;;5050214;28;20148;-80
2022/06/03 14:09:27;;;;;;;5.80;1.30;;;25.50;51.60;;;;;;5051206;28;20043;-84
2022/06/03 14:12:16;;;;;;;8.18;1.35;;;25.40;51.30;;;;;;5049502;28;20037;-83
2022/06/03 14:15:05;;;;;;;3.10;1.45;;;25.40;51.90;;;;;;5050784;28;20466;-82
2022/06/03 14:17:45;;;;;;;1.33;1.17;;;25.30;51.80;;;;;;5050988;28;20053;-84
2022/06/03 14:20:27;;;;;;;5.72;1.25;;;25.30;51.80;;;;;;5050850;28;20044;-83
2022/06/03 14:23:29;;;;;;;2.38;1.60;;;25.30;51.90;;;;;;5050846;28;20071;-83
2022/06/03 14:26:24;;;;;;;1.42;1.10;;;25.30;51.90;;;;;;5050760;28;20064;-84
2022/06/03 14:29:06;;;;;;;1.23;1.05;;;25.30;51.90;;;;;;5049959;28;20024;-80
2022/06/03 14:32:00;;;;;;;2.92;1.23;;;25.20;51.90;;;;;;5050619;28;20470;-80
2022/06/03 14:34:39;;;;;;;2.65;1.67;;;25.20;51.90;;;;;;5050216;28;20037;-79
2022/06/03 14:37:06;;;;;;;1.65;1.42;;;25.20;52.70;;;;;;5050889;28;20032;-79
2022/06/03 14:39:38;;;;;;;1.33;1.23;;;25.20;52.90;;;;;;5050720;28;20029;-85
2022/06/03 14:42:11;;;;;;;1.90;1.13;;;25.20;52.60;;;;;;5050450;28;20045;-77
2022/06/03 14:44:40;;;;;;;2.47;1.95;;;25.10;52.40;;;;;;5050511;28;20093;-80
2022/06/03 14:47:22;;;;;;;3.72;2.45;;;25.00;52.50;;;;;;5051482;28;20021;-80
2022/06/03 14:50:16;;;;;;;4.05;2.25;;;25.00;52.30;;;;;;5050380;28;20021;-79
2022/06/03 14:52:58;;;;;;;1.88;1.23;;;25.10;52.40;;;;;;5049986;28;20033;-77
2022/06/03 14:55:38;;;;;;;1.70;1.20;;;25.10;52.30;;;;;;5049783;28;20680;-77
2022/06/03 14:58:26;;;;;;;1.30;1.17;;;25.10;52.00;;;;;;5050544;28;20021;-77
2022/06/03 15:01:17;;;;;;;1.80;1.40;;;25.10;52.40;;;;;;5050418;28;20036;-78
2022/06/03 15:04:03;;;;;;;2.80;1.35;;;25.00;52.70;;;;;;5050568;28;20021;-78
2022/06/03 15:06:45;;;;;;;1.88;1.33;;;25.00;52.70;;;;;;5048836;28;20044;-78
2022/06/03 15:09:34;;;;;;;1.30;0.93;;;25.20;52.60;;;;;;5048774;28;20411;-78
2022/06/03 15:12:06;;;;;;;6.07;2.17;;;25.20;52.50;;;;;;5048888;28;20112;-76